createdAt,value
2017-07-28T00:00:15.852Z,2.67
2017-07-28T00:02:43.357Z,2.00
2017-07-28T00:05:10.899Z,2.43
2017-07-28T00:07:38.413Z,2.57
2017-07-28T00:10:05.934Z,2.53
2017-07-28T00:12:33.449Z,1.80
2017-07-28T00:15:00.985Z,2.27
2017-07-28T00:17:28.508Z,2.50
2017-07-28T00:19:56.043Z,2.37
2017-07-28T00:22:23.552Z,2.23
2017-07-28T00:24:51.077Z,2.27
2017-07-28T00:27:18.584Z,2.10
2017-07-28T00:29:46.096Z,2.50
2017-07-28T00:32:13.605Z,2.33
2017-07-28T00:34:41.141Z,2.57
2017-07-28T00:37:08.668Z,2.30
2017-07-28T00:39:36.172Z,2.47
2017-07-28T00:42:03.707Z,2.13
2017-07-28T00:44:31.228Z,2.83
2017-07-28T00:46:58.781Z,2.30
2017-07-28T00:49:26.303Z,2.00
2017-07-28T00:51:53.828Z,2.70
2017-07-28T00:54:21.341Z,2.50
2017-07-28T00:56:48.877Z,2.10
2017-07-28T00:59:16.388Z,2.93
2017-07-28T01:01:43.931Z,2.77
2017-07-28T01:04:11.437Z,2.47
2017-07-28T01:06:38.958Z,1.93
2017-07-28T01:09:06.495Z,2.27
2017-07-28T01:11:34.044Z,2.53
2017-07-28T01:14:01.697Z,2.57
2017-07-28T01:16:29.276Z,2.80
2017-07-28T01:18:56.855Z,2.70
2017-07-28T01:21:24.407Z,3.03
2017-07-28T01:23:51.973Z,2.57
2017-07-28T01:26:19.515Z,2.63
2017-07-28T01:28:47.045Z,2.43
2017-07-28T01:31:14.605Z,2.30
2017-07-28T01:33:42.159Z,2.97
2017-07-28T01:36:09.770Z,2.50
2017-07-28T01:38:37.328Z,2.77
2017-07-28T01:41:04.890Z,2.90
2017-07-28T01:43:32.428Z,2.50
2017-07-28T01:46:01.006Z,2.93
2017-07-28T01:48:28.528Z,3.20
2017-07-28T01:50:56.106Z,3.60
2017-07-28T01:53:23.631Z,3.60
2017-07-28T01:55:51.157Z,2.80
2017-07-28T01:58:18.689Z,2.80
2017-07-28T02:00:46.373Z,2.90
2017-07-28T02:03:13.921Z,2.93
2017-07-28T02:05:41.455Z,3.30
2017-07-28T02:08:09.017Z,3.40
2017-07-28T02:10:36.549Z,3.17
2017-07-28T02:13:04.126Z,3.30
2017-07-28T02:15:31.654Z,2.80
2017-07-28T02:17:59.229Z,3.13
2017-07-28T02:20:26.765Z,3.00
2017-07-28T02:22:54.294Z,3.43
2017-07-28T02:25:21.820Z,3.50
2017-07-28T02:27:49.347Z,2.87
2017-07-28T02:30:16.865Z,3.53
2017-07-28T02:32:44.415Z,3.47
2017-07-28T02:35:11.922Z,3.90
2017-07-28T02:37:39.443Z,4.00
2017-07-28T02:40:07.003Z,3.57
2017-07-28T02:42:34.534Z,3.80
2017-07-28T02:45:02.096Z,4.30
2017-07-28T02:47:29.624Z,4.13
2017-07-28T02:49:57.154Z,4.40
2017-07-28T02:52:24.697Z,4.20
2017-07-28T02:54:52.246Z,4.30
2017-07-28T02:57:19.789Z,4.60
2017-07-28T02:59:47.644Z,4.70
2017-07-28T03:02:15.203Z,4.00
2017-07-28T03:04:42.748Z,4.40
2017-07-28T03:07:10.282Z,4.50
2017-07-28T03:09:37.816Z,4.27
2017-07-28T03:12:05.331Z,4.67
2017-07-28T03:14:32.875Z,4.73
2017-07-28T03:17:00.403Z,4.07
2017-07-28T03:19:28.976Z,4.93
2017-07-28T03:21:56.508Z,4.47
2017-07-28T03:24:24.008Z,4.50
2017-07-28T03:26:51.534Z,4.70
2017-07-28T03:29:19.043Z,4.73
2017-07-28T03:31:46.573Z,4.50
2017-07-28T03:34:14.093Z,4.67
2017-07-28T03:36:41.620Z,5.00
2017-07-28T03:39:09.130Z,4.60
2017-07-28T03:41:36.635Z,4.93
2017-07-28T03:44:04.192Z,5.03
2017-07-28T03:46:31.741Z,5.13
2017-07-28T03:48:59.296Z,4.57
2017-07-28T03:51:26.815Z,4.70
2017-07-28T03:53:54.766Z,4.83
2017-07-28T03:56:22.273Z,4.10
2017-07-28T03:58:49.836Z,4.40
2017-07-28T04:01:17.419Z,5.17
2017-07-28T04:03:44.982Z,5.43
2017-07-28T04:06:12.504Z,5.50
2017-07-28T04:08:40.113Z,4.50
2017-07-28T04:11:07.684Z,5.33
2017-07-28T04:13:35.207Z,4.60
2017-07-28T04:16:02.765Z,5.50
2017-07-28T04:18:30.288Z,5.10
2017-07-28T04:20:57.889Z,5.30
2017-07-28T04:23:25.424Z,4.37
2017-07-28T04:25:52.985Z,6.40
2017-07-28T04:28:20.526Z,5.70
2017-07-28T04:30:48.056Z,5.00
2017-07-28T04:33:15.652Z,4.30
2017-07-28T04:35:43.226Z,5.13
2017-07-28T04:38:10.809Z,4.50
2017-07-28T04:40:38.430Z,5.00
2017-07-28T04:43:06.092Z,5.70
2017-07-28T04:45:33.650Z,5.10
2017-07-28T04:48:01.329Z,4.70
2017-07-28T04:50:28.974Z,6.00
2017-07-28T04:52:56.519Z,5.00
2017-07-28T04:55:24.112Z,5.40
2017-07-28T04:57:51.655Z,4.63
2017-07-28T05:00:19.433Z,4.50
2017-07-28T05:02:46.975Z,5.50
2017-07-28T05:05:14.568Z,4.33
2017-07-28T05:07:42.140Z,4.30
2017-07-28T05:10:09.673Z,4.80
2017-07-28T05:12:37.260Z,4.80
2017-07-28T05:15:04.895Z,4.83
2017-07-28T05:17:32.681Z,4.60
2017-07-28T05:20:00.215Z,4.27
2017-07-28T05:22:27.811Z,5.43
2017-07-28T05:24:55.416Z,4.90
2017-07-28T05:27:23.001Z,4.77
2017-07-28T05:29:50.541Z,4.13
2017-07-28T05:32:18.101Z,5.13
2017-07-28T05:34:45.729Z,4.30
2017-07-28T05:37:13.336Z,5.10
2017-07-28T05:39:40.864Z,5.63
2017-07-28T05:42:08.407Z,4.63
2017-07-28T05:44:35.949Z,4.97
2017-07-28T05:47:03.486Z,5.73
2017-07-28T05:49:31.028Z,5.87
2017-07-28T05:51:58.590Z,3.87
2017-07-28T05:54:26.160Z,4.13
2017-07-28T05:56:53.700Z,4.67
2017-07-28T05:59:21.228Z,4.50
2017-07-28T06:01:49.155Z,4.50
2017-07-28T06:04:16.676Z,4.07
2017-07-28T06:06:44.268Z,4.53
2017-07-28T06:09:11.859Z,4.10
2017-07-28T06:11:39.440Z,4.00
2017-07-28T06:14:07.058Z,4.10
2017-07-28T06:16:34.672Z,3.70
2017-07-28T06:19:02.285Z,3.93
2017-07-28T06:21:30.668Z,3.63
2017-07-28T06:23:58.304Z,4.37
2017-07-28T06:26:25.853Z,4.20
2017-07-28T06:28:53.388Z,4.27
2017-07-28T06:31:22.524Z,3.73
2017-07-28T06:33:50.074Z,4.00
2017-07-28T06:36:17.652Z,4.53
2017-07-28T06:38:45.540Z,4.50
2017-07-28T06:41:13.151Z,3.70
2017-07-28T06:43:40.670Z,4.70
2017-07-28T06:46:08.181Z,4.63
2017-07-28T06:48:35.712Z,4.53
2017-07-28T06:51:03.665Z,4.63
2017-07-28T06:53:31.179Z,4.57
2017-07-28T06:55:58.755Z,4.77
2017-07-28T06:58:26.277Z,4.50
2017-07-28T07:00:53.891Z,4.63
2017-07-28T07:03:21.409Z,4.30
2017-07-28T07:05:48.964Z,4.90
2017-07-28T07:08:16.531Z,5.37
2017-07-28T07:10:44.123Z,4.97
2017-07-28T07:13:11.651Z,4.70
2017-07-28T07:15:39.188Z,4.43
2017-07-28T07:18:06.698Z,5.00
2017-07-28T07:20:34.244Z,4.63
2017-07-28T07:23:01.792Z,5.33
2017-07-28T07:25:29.359Z,4.80
2017-07-28T07:27:56.907Z,4.93
2017-07-28T07:30:24.440Z,5.13
2017-07-28T07:32:51.985Z,4.83
2017-07-28T07:35:19.541Z,5.30
2017-07-28T07:37:47.097Z,4.73
2017-07-28T07:40:14.636Z,4.80
2017-07-28T07:42:42.203Z,5.57
2017-07-28T07:45:09.762Z,4.90
2017-07-28T07:47:37.297Z,5.23
2017-07-28T07:50:04.864Z,4.80
2017-07-28T07:52:32.444Z,4.90
2017-07-28T07:55:00.037Z,5.40
2017-07-28T07:57:27.593Z,5.47
2017-07-28T07:59:55.205Z,5.83
2017-07-28T08:02:22.716Z,4.97
2017-07-28T08:04:50.248Z,5.37
2017-07-28T08:07:17.740Z,5.10
2017-07-28T08:09:45.288Z,4.83
2017-07-28T08:12:12.812Z,4.90
2017-07-28T08:14:40.414Z,5.23
2017-07-28T08:17:07.957Z,5.00
2017-07-28T08:19:35.534Z,4.23
2017-07-28T08:22:03.107Z,5.30
2017-07-28T08:24:30.652Z,4.57
2017-07-28T08:26:58.264Z,4.40
2017-07-28T08:29:25.796Z,4.63
2017-07-28T08:31:53.317Z,5.60
2017-07-28T08:34:20.861Z,4.80
2017-07-28T08:36:48.487Z,4.73
2017-07-28T08:39:16.062Z,4.03
2017-07-28T08:41:43.632Z,4.10
2017-07-28T08:44:11.168Z,4.30
2017-07-28T08:46:38.733Z,4.30
2017-07-28T08:49:06.263Z,3.87
2017-07-28T08:51:33.844Z,4.23
2017-07-28T08:54:01.389Z,4.13
2017-07-28T08:56:28.999Z,3.77
2017-07-28T08:58:56.541Z,4.67
2017-07-28T09:01:24.138Z,4.07
2017-07-28T09:03:51.684Z,4.40
2017-07-28T09:06:19.303Z,4.17
2017-07-28T09:08:46.854Z,4.67
2017-07-28T09:11:14.406Z,4.23
2017-07-28T09:13:41.941Z,3.93
2017-07-28T09:16:09.485Z,4.07
2017-07-28T09:18:37.042Z,4.40
2017-07-28T09:21:04.571Z,3.87
2017-07-28T09:23:32.213Z,4.43
2017-07-28T09:26:00.685Z,4.30
2017-07-28T09:28:28.230Z,3.10
2017-07-28T09:30:55.772Z,3.77
2017-07-28T09:33:23.316Z,3.97
2017-07-28T09:35:50.901Z,3.90
2017-07-28T09:38:18.470Z,3.77
2017-07-28T09:40:46.011Z,3.90
2017-07-28T09:43:13.574Z,3.73
2017-07-28T09:45:41.087Z,3.80
2017-07-28T09:48:08.696Z,4.13
2017-07-28T09:50:36.224Z,3.97
2017-07-28T09:53:03.769Z,4.17
2017-07-28T09:55:31.301Z,3.83
2017-07-28T09:57:58.841Z,3.40
2017-07-28T10:00:26.400Z,4.23
2017-07-28T10:02:53.955Z,4.30
2017-07-28T10:05:21.547Z,3.80
2017-07-28T10:07:49.072Z,4.03
2017-07-28T10:10:16.649Z,3.40
2017-07-28T10:12:44.197Z,3.77
2017-07-28T10:15:11.763Z,3.47
2017-07-28T10:17:39.310Z,4.03
2017-07-28T10:20:06.880Z,3.53
2017-07-28T10:22:34.399Z,3.53
2017-07-28T10:25:02.002Z,3.40
2017-07-28T10:27:30.502Z,3.90
2017-07-28T10:29:58.065Z,4.07
2017-07-28T10:32:25.599Z,3.60
2017-07-28T10:34:53.220Z,3.80
2017-07-28T10:37:20.759Z,3.40
2017-07-28T10:39:48.311Z,3.50
2017-07-28T10:42:15.913Z,4.20
2017-07-28T10:44:43.493Z,3.43
2017-07-28T10:47:11.034Z,3.20
2017-07-28T10:49:38.593Z,3.53
2017-07-28T10:52:06.153Z,4.40
2017-07-28T10:54:33.663Z,3.53
2017-07-28T10:57:01.271Z,4.07
2017-07-28T10:59:28.797Z,3.80
2017-07-28T11:01:56.347Z,3.37
2017-07-28T11:04:23.885Z,3.20
2017-07-28T11:06:51.431Z,3.33
2017-07-28T11:09:18.957Z,3.30
2017-07-28T11:11:46.526Z,2.87
2017-07-28T11:14:14.055Z,3.10
2017-07-28T11:16:41.586Z,3.50
2017-07-28T11:19:09.134Z,3.33
2017-07-28T11:21:36.755Z,3.50
2017-07-28T11:24:04.300Z,3.17
2017-07-28T11:26:32.098Z,3.43
2017-07-28T11:28:59.647Z,3.50
2017-07-28T11:31:27.200Z,2.90
2017-07-28T11:33:54.737Z,3.23
2017-07-28T11:36:22.736Z,2.93
2017-07-28T11:38:50.278Z,3.10
2017-07-28T11:41:17.863Z,2.97
2017-07-28T11:43:45.405Z,2.90
2017-07-28T11:46:13.014Z,2.47
2017-07-28T11:48:40.609Z,2.83
2017-07-28T11:51:08.166Z,2.40
2017-07-28T11:53:35.688Z,2.83
2017-07-28T11:56:03.236Z,3.23
2017-07-28T11:58:30.816Z,2.90
2017-07-28T12:00:58.395Z,3.20
2017-07-28T12:03:25.925Z,3.10
2017-07-28T12:05:53.514Z,2.70
2017-07-28T12:08:21.043Z,3.73
2017-07-28T12:10:49.328Z,3.27
2017-07-28T12:13:16.874Z,3.23
2017-07-28T12:15:44.425Z,2.70
2017-07-28T12:18:11.995Z,3.83
2017-07-28T12:20:39.646Z,2.60
2017-07-28T12:23:07.199Z,2.60
2017-07-28T12:25:35.796Z,2.97
2017-07-28T12:28:03.334Z,3.10
2017-07-28T12:30:30.882Z,3.00
2017-07-28T12:32:58.413Z,3.00
2017-07-28T12:35:26.020Z,2.83
2017-07-28T12:37:53.648Z,3.33
2017-07-28T12:40:21.197Z,3.90
2017-07-28T12:42:48.719Z,3.03
2017-07-28T12:45:16.254Z,3.03
2017-07-28T12:47:43.797Z,2.97
2017-07-28T12:50:11.343Z,3.50
2017-07-28T12:52:38.905Z,3.53
2017-07-28T12:55:06.426Z,3.00
2017-07-28T12:57:33.953Z,3.20
2017-07-28T13:00:01.491Z,2.70
2017-07-28T13:02:29.065Z,4.13
2017-07-28T13:04:56.617Z,3.03
2017-07-28T13:07:24.210Z,2.83
2017-07-28T13:09:51.762Z,3.03
2017-07-28T13:12:19.325Z,3.20
2017-07-28T13:14:46.870Z,3.20
2017-07-28T13:17:14.479Z,2.93
2017-07-28T13:19:42.014Z,3.03
2017-07-28T13:22:09.585Z,3.60
2017-07-28T13:24:37.113Z,2.47
2017-07-28T13:27:04.659Z,3.00
2017-07-28T13:29:32.175Z,2.60
2017-07-28T13:31:59.764Z,3.50
2017-07-28T13:34:27.285Z,2.67
2017-07-28T13:36:54.837Z,2.40
2017-07-28T13:39:22.409Z,3.77
2017-07-28T13:41:49.957Z,3.30
2017-07-28T13:44:17.487Z,3.20
2017-07-28T13:46:50.747Z,3.00
2017-07-28T13:49:18.331Z,3.53
2017-07-28T13:51:45.883Z,3.00
2017-07-28T13:54:13.408Z,3.50
2017-07-28T13:56:40.952Z,3.23
2017-07-28T13:59:08.476Z,4.77
2017-07-28T14:01:36.025Z,3.13
2017-07-28T14:04:03.565Z,3.50
2017-07-28T14:06:31.167Z,3.10
2017-07-28T14:08:58.729Z,3.53
2017-07-28T14:11:26.279Z,3.57
2017-07-28T14:13:53.809Z,3.30
2017-07-28T14:16:21.348Z,3.30
2017-07-28T14:18:48.873Z,3.50
2017-07-28T14:21:16.421Z,3.73
2017-07-28T14:23:43.960Z,3.73
2017-07-28T14:26:11.494Z,3.43
2017-07-28T14:28:39.031Z,3.77
2017-07-28T14:31:06.569Z,3.70
2017-07-28T14:33:34.109Z,3.47
2017-07-28T14:36:01.661Z,3.50
2017-07-28T14:38:29.254Z,3.80
2017-07-28T14:40:56.822Z,3.83
2017-07-28T14:43:24.365Z,3.47
2017-07-28T14:45:51.888Z,3.30
2017-07-28T14:48:19.416Z,3.20
2017-07-28T14:50:47.000Z,3.43
2017-07-28T14:53:14.539Z,3.53
2017-07-28T14:55:42.070Z,3.90
2017-07-28T14:58:09.609Z,3.10
2017-07-28T15:00:37.137Z,3.63
2017-07-28T15:03:04.697Z,3.37
2017-07-28T15:05:32.257Z,3.70
2017-07-28T15:07:59.757Z,3.60
2017-07-28T15:10:28.359Z,3.30
2017-07-28T15:12:55.967Z,3.27
2017-07-28T15:15:23.507Z,3.37
2017-07-28T15:17:51.033Z,3.50
2017-07-28T15:20:18.595Z,3.33
2017-07-28T15:22:46.119Z,3.47
2017-07-28T15:25:13.672Z,2.93
2017-07-28T15:27:41.259Z,3.33
2017-07-28T15:30:08.785Z,3.30
2017-07-28T15:32:36.386Z,3.70
2017-07-28T15:35:03.980Z,3.67
2017-07-28T15:37:31.597Z,3.50
2017-07-28T15:39:59.108Z,3.30
2017-07-28T15:42:27.799Z,3.07
2017-07-28T15:44:55.340Z,3.63
2017-07-28T15:47:22.882Z,3.70
2017-07-28T15:49:50.428Z,3.13
2017-07-28T15:52:17.972Z,3.00
2017-07-28T15:54:46.258Z,3.30
2017-07-28T15:57:13.835Z,3.63
2017-07-28T15:59:41.361Z,3.10
2017-07-28T16:02:09.700Z,3.40
2017-07-28T16:04:37.264Z,3.10
2017-07-28T16:07:04.824Z,3.80
2017-07-28T16:09:32.359Z,4.60
2017-07-28T16:11:59.903Z,3.40
2017-07-28T16:14:27.425Z,3.50
2017-07-28T16:16:54.970Z,3.70
2017-07-28T16:19:34.478Z,3.60
2017-07-28T16:22:15.871Z,3.07
2017-07-28T16:24:43.513Z,2.90
2017-07-28T16:27:11.046Z,3.30
2017-07-28T16:29:38.589Z,3.33
2017-07-28T16:32:06.115Z,3.40
2017-07-28T16:34:33.616Z,3.07
2017-07-28T16:37:01.170Z,3.80
2017-07-28T16:39:28.698Z,3.33
2017-07-28T16:42:02.835Z,3.17
2017-07-28T16:44:30.369Z,3.17
2017-07-28T16:46:57.921Z,3.30
2017-07-28T16:49:25.455Z,3.90
2017-07-28T16:51:52.980Z,3.50
2017-07-28T16:54:20.492Z,4.40
2017-07-28T16:56:48.005Z,3.27
2017-07-28T16:59:15.500Z,2.70
2017-07-28T17:01:43.021Z,3.30
2017-07-28T17:04:10.525Z,3.47
2017-07-28T17:06:38.039Z,3.60
2017-07-28T17:09:05.544Z,3.67
2017-07-28T17:11:33.092Z,3.63
2017-07-28T17:14:00.642Z,3.60
2017-07-28T17:16:28.214Z,3.43
2017-07-28T17:18:55.929Z,2.97
2017-07-28T17:21:23.505Z,3.40
2017-07-28T17:23:51.030Z,3.80
2017-07-28T17:26:18.573Z,3.40
2017-07-28T17:28:46.067Z,3.53
2017-07-28T17:31:13.601Z,2.87
2017-07-28T17:33:41.109Z,3.13
2017-07-28T17:36:08.641Z,3.13
2017-07-28T17:38:36.158Z,4.40
2017-07-28T17:41:03.690Z,3.50
2017-07-28T17:43:31.188Z,3.37
2017-07-28T17:45:58.745Z,3.13
2017-07-28T17:48:26.270Z,3.40
2017-07-28T17:50:53.792Z,3.30
2017-07-28T17:53:21.300Z,3.33
2017-07-28T17:55:48.851Z,3.00
2017-07-28T17:58:16.361Z,3.13
2017-07-28T18:00:43.881Z,3.50
2017-07-28T18:03:11.404Z,3.20
2017-07-28T18:05:38.929Z,3.70
2017-07-28T18:08:12.285Z,3.30
2017-07-28T18:10:39.858Z,3.40
2017-07-28T18:13:07.368Z,3.37
2017-07-28T18:15:34.905Z,3.00
2017-07-28T18:18:02.424Z,2.80
2017-07-28T18:20:29.980Z,3.10
2017-07-28T18:22:57.505Z,3.00
2017-07-28T18:25:25.044Z,3.20
2017-07-28T18:27:52.554Z,3.50
2017-07-28T18:30:20.088Z,3.90
2017-07-28T18:32:47.608Z,3.27
2017-07-28T18:35:15.224Z,3.57
2017-07-28T18:37:42.773Z,3.53
2017-07-28T18:40:10.349Z,3.37
2017-07-28T18:42:37.914Z,3.10
2017-07-28T18:45:05.414Z,3.70
2017-07-28T18:47:32.978Z,3.70
2017-07-28T18:50:00.498Z,3.83
2017-07-28T18:52:28.071Z,3.80
2017-07-28T18:54:55.616Z,3.47
2017-07-28T18:57:26.232Z,3.70
2017-07-28T18:59:53.753Z,3.80
2017-07-28T19:02:21.332Z,3.40
2017-07-28T19:04:49.017Z,3.67
2017-07-28T19:07:16.564Z,4.27
2017-07-28T19:09:44.098Z,4.00
2017-07-28T19:12:12.404Z,3.20
2017-07-28T19:14:39.950Z,4.13
2017-07-28T19:17:07.547Z,3.47
2017-07-28T19:19:35.137Z,3.90
2017-07-28T19:22:02.683Z,4.33
2017-07-28T19:24:30.278Z,4.03
2017-07-28T19:26:57.824Z,3.83
2017-07-28T19:29:25.349Z,4.27
2017-07-28T19:31:52.886Z,3.67
2017-07-28T19:34:20.422Z,4.10
2017-07-28T19:36:47.968Z,3.73
2017-07-28T19:39:15.487Z,3.70
2017-07-28T19:41:43.050Z,3.83
2017-07-28T19:44:10.615Z,5.70
2017-07-28T19:46:38.135Z,4.13
2017-07-28T19:49:05.665Z,3.97
2017-07-28T19:51:33.210Z,3.50
2017-07-28T19:54:00.713Z,3.97
2017-07-28T19:56:28.266Z,4.30
2017-07-28T19:58:55.798Z,4.63
2017-07-28T20:01:23.366Z,4.20
2017-07-28T20:03:50.886Z,3.87
2017-07-28T20:06:23.590Z,4.40
2017-07-28T20:08:51.180Z,3.90
2017-07-28T20:11:18.798Z,4.53
2017-07-28T20:13:47.060Z,4.00
2017-07-28T20:16:14.628Z,4.47
2017-07-28T20:18:42.144Z,4.33
2017-07-28T20:21:09.750Z,4.80
2017-07-28T20:23:37.280Z,4.87
2017-07-28T20:26:04.814Z,4.53
2017-07-28T20:28:32.335Z,4.63
2017-07-28T20:30:59.878Z,4.07
2017-07-28T20:33:27.386Z,4.00
2017-07-28T20:35:54.926Z,4.40
2017-07-28T20:38:23.197Z,4.40
2017-07-28T20:40:50.853Z,4.53
2017-07-28T20:43:18.391Z,4.27
2017-07-28T20:45:45.922Z,4.57
2017-07-28T20:48:13.438Z,4.50
2017-07-28T20:50:40.981Z,4.70
2017-07-28T20:53:08.509Z,4.93
2017-07-28T20:55:36.048Z,4.60
2017-07-28T20:58:03.574Z,4.80
2017-07-28T21:00:31.122Z,4.43
2017-07-28T21:02:58.639Z,4.63
2017-07-28T21:05:26.197Z,4.60
2017-07-28T21:07:53.713Z,4.57
2017-07-28T21:10:21.241Z,5.30
2017-07-28T21:12:48.749Z,5.47
2017-07-28T21:15:17.065Z,5.33
2017-07-28T21:17:44.583Z,4.73
2017-07-28T21:20:12.113Z,5.03
2017-07-28T21:22:39.645Z,5.50
2017-07-28T21:25:07.179Z,5.17
2017-07-28T21:27:34.701Z,4.73
2017-07-28T21:30:02.234Z,4.83
2017-07-28T21:32:29.801Z,5.03
2017-07-28T21:34:57.364Z,5.00
2017-07-28T21:37:24.876Z,5.13
2017-07-28T21:39:52.399Z,5.10
2017-07-28T21:42:19.933Z,4.93
2017-07-28T21:44:47.453Z,4.80
2017-07-28T21:47:14.965Z,4.50
2017-07-28T21:49:42.459Z,4.97
2017-07-28T21:52:09.981Z,5.10
2017-07-28T21:54:37.499Z,4.90
2017-07-28T21:57:05.028Z,5.50
2017-07-28T21:59:32.536Z,5.60
2017-07-28T22:02:00.072Z,4.70
2017-07-28T22:04:27.577Z,5.10
2017-07-28T22:06:55.095Z,5.23
2017-07-28T22:09:22.589Z,5.00
2017-07-28T22:11:50.121Z,5.47
2017-07-28T22:14:17.630Z,5.67
2017-07-28T22:16:45.180Z,5.13
2017-07-28T22:19:12.686Z,5.50
2017-07-28T22:21:40.221Z,6.10
2017-07-28T22:24:07.729Z,5.43
2017-07-28T22:26:35.276Z,5.80
2017-07-28T22:29:02.785Z,7.20
2017-07-28T22:31:30.303Z,6.03
2017-07-28T22:33:57.810Z,6.03
2017-07-28T22:36:25.350Z,5.73
2017-07-28T22:38:52.869Z,5.60
2017-07-28T22:41:20.393Z,5.57
2017-07-28T22:43:47.901Z,4.77
2017-07-28T22:46:15.432Z,5.43
2017-07-28T22:48:42.957Z,5.43
2017-07-28T22:51:10.569Z,6.00
2017-07-28T22:53:38.077Z,5.87
2017-07-28T22:56:05.601Z,6.03
2017-07-28T22:58:33.096Z,6.43
2017-07-28T23:01:00.616Z,6.13
2017-07-28T23:03:28.124Z,6.70
2017-07-28T23:05:55.652Z,5.87
2017-07-28T23:08:23.166Z,5.73
2017-07-28T23:10:50.693Z,6.10
2017-07-28T23:13:18.207Z,6.20
2017-07-28T23:15:45.748Z,5.87
2017-07-28T23:18:14.084Z,6.10
2017-07-28T23:20:41.615Z,6.90
2017-07-28T23:23:09.148Z,5.73
2017-07-28T23:25:36.692Z,5.53
2017-07-28T23:28:04.191Z,5.53
2017-07-28T23:30:31.788Z,6.40
2017-07-28T23:32:59.319Z,6.20
2017-07-28T23:35:27.833Z,5.33
2017-07-28T23:37:55.390Z,5.37
2017-07-28T23:40:22.942Z,5.53
2017-07-28T23:42:50.493Z,4.90
2017-07-28T23:45:18.065Z,5.97
2017-07-28T23:47:45.619Z,6.33
2017-07-28T23:50:13.182Z,5.33
2017-07-28T23:52:40.720Z,5.10
2017-07-28T23:55:08.305Z,5.00
2017-07-28T23:57:35.837Z,5.47
